Time;durP1;ratioP1;P1;durP2;ratioP2;P2;SDS_P1;SDS_P2;PMS_P1;PMS_P2;Temp;Humidity;BMP_temperature;BMP_pressure;BME280_temperature;BME280_humidity;BME280_pressure;Samples;Min_cycle;Max_cycle;Signal;HPM_P1;HPM_P2
2022/05/25 00:01:52;;;;;;;2.50;1.50;;;16.30;99.90;;;;;;5117042;28;20447;-57
2022/05/25 00:04:19;;;;;;;1.60;1.50;;;16.40;99.90;;;;;;5116608;28;20453;-57
2022/05/25 00:06:48;;;;;;;1.50;1.40;;;16.40;99.90;;;;;;5116659;28;20502;-57
2022/05/25 00:09:15;;;;;;;3.47;1.83;;;16.40;99.90;;;;;;5116678;28;20564;-57
2022/05/25 00:11:42;;;;;;;1.93;1.60;;;16.30;99.90;;;;;;5116792;28;20442;-56
2022/05/25 00:14:11;;;;;;;1.70;1.50;;;16.20;99.90;;;;;;5116677;28;20461;-57
2022/05/25 00:16:39;;;;;;;1.90;1.70;;;16.30;99.90;;;;;;5116742;28;20446;-56
2022/05/25 00:21:52;;;;;;;2.13;1.50;;;16.10;99.90;;;;;;5116570;28;20450;-57
2022/05/25 00:24:19;;;;;;;1.40;1.30;;;16.20;99.90;;;;;;5116645;28;20446;-57
2022/05/25 00:26:46;;;;;;;4.60;1.53;;;16.20;99.90;;;;;;5116102;28;20922;-57
2022/05/25 00:29:15;;;;;;;1.47;1.37;;;16.00;99.90;;;;;;5115935;28;20493;-58
2022/05/25 00:31:43;;;;;;;1.83;1.40;;;15.90;99.90;;;;;;5116333;28;20446;-57
2022/05/25 00:34:10;;;;;;;1.50;1.40;;;16.00;99.90;;;;;;5115989;28;20446;-57
2022/05/25 00:36:38;;;;;;;1.90;1.70;;;15.90;99.90;;;;;;5115753;28;20454;-57
2022/05/25 00:39:06;;;;;;;4.20;1.63;;;15.90;99.90;;;;;;5116151;28;20562;-57
2022/05/25 00:41:33;;;;;;;1.60;1.50;;;15.90;99.90;;;;;;5116237;28;20446;-57
2022/05/25 00:44:01;;;;;;;1.47;1.30;;;15.90;99.90;;;;;;5115575;28;20843;-57
2022/05/25 00:46:30;;;;;;;1.40;1.30;;;15.80;99.90;;;;;;5116005;28;20427;-57
2022/05/25 00:49:03;;;;;;;1.70;1.47;;;15.80;99.90;;;;;;5115924;28;20565;-57
2022/05/25 00:51:38;;;;;;;1.63;1.53;;;15.70;99.90;;;;;;5116143;28;20433;-57
2022/05/25 00:54:09;;;;;;;2.03;1.60;;;15.80;99.90;;;;;;5116072;28;20411;-57
2022/05/25 00:56:41;;;;;;;1.80;1.37;;;15.80;99.90;;;;;;5115497;28;20442;-57
2022/05/25 00:59:12;;;;;;;1.90;1.40;;;15.80;99.90;;;;;;5115870;28;20458;-57
2022/05/25 01:01:41;;;;;;;2.17;1.40;;;15.80;99.90;;;;;;5115888;28;20798;-57
2022/05/25 01:04:09;;;;;;;1.80;1.43;;;15.80;99.90;;;;;;5115825;28;20451;-57
2022/05/25 01:07:10;;;;;;;1.73;1.47;;;15.80;99.90;;;;;;5115681;28;20531;-57
2022/05/25 01:09:47;;;;;;;1.90;1.70;;;15.80;99.90;;;;;;5115170;28;20489;-57
2022/05/25 01:12:35;;;;;;;1.50;1.40;;;15.70;99.90;;;;;;5115602;28;20423;-57
2022/05/25 01:15:12;;;;;;;2.60;1.40;;;15.60;99.90;;;;;;5115841;28;20458;-57
2022/05/25 01:17:58;;;;;;;1.50;1.40;;;15.60;99.90;;;;;;5115532;28;20468;-57
2022/05/25 01:20:35;;;;;;;2.77;1.60;;;15.70;99.90;;;;;;5115472;28;20427;-57
2022/05/25 01:23:31;;;;;;;2.23;1.53;;;15.70;99.90;;;;;;5115569;28;20438;-57
2022/05/25 01:26:26;;;;;;;2.43;1.47;;;15.70;99.90;;;;;;5115274;28;20454;-57
2022/05/25 01:29:13;;;;;;;2.33;1.80;;;15.70;99.90;;;;;;5111795;28;20535;-57
2022/05/25 01:31:47;;;;;;;2.40;1.50;;;15.70;99.90;;;;;;5114908;28;20423;-57
2022/05/25 01:34:22;;;;;;;1.87;1.53;;;15.70;99.90;;;;;;5115166;28;20426;-57
2022/05/25 01:36:57;;;;;;;1.50;1.40;;;15.70;99.90;;;;;;5114899;28;20427;-57
2022/05/25 01:39:31;;;;;;;1.67;1.57;;;15.60;99.90;;;;;;5115007;28;20454;-57
2022/05/25 01:42:06;;;;;;;2.40;1.40;;;15.60;99.90;;;;;;5115062;28;20423;-57
2022/05/25 01:44:39;;;;;;;1.67;1.47;;;15.60;99.90;;;;;;5114421;28;20560;-57
2022/05/25 01:47:10;;;;;;;1.60;1.30;;;15.50;99.90;;;;;;5114829;28;20407;-57
2022/05/25 01:49:44;;;;;;;3.33;1.93;;;15.60;99.90;;;;;;5113917;28;20475;-57
2022/05/25 01:52:16;;;;;;;3.50;1.60;;;15.60;99.90;;;;;;5114567;28;20914;-57
2022/05/25 01:54:50;;;;;;;2.07;1.50;;;15.60;99.90;;;;;;5114864;28;20427;-57
2022/05/25 01:57:19;;;;;;;2.10;1.67;;;15.40;99.90;;;;;;5114587;28;20438;-57
2022/05/25 01:59:46;;;;;;;1.93;1.83;;;15.40;99.90;;;;;;5114418;28;20469;-57
2022/05/25 02:05:04;;;;;;;4.50;1.60;;;15.50;99.90;;;;;;5114374;28;20556;-57
2022/05/25 02:07:45;;;;;;;2.17;1.37;;;15.50;99.90;;;;;;5114343;28;20916;-57
2022/05/25 02:10:22;;;;;;;1.77;1.37;;;15.40;99.90;;;;;;5114383;28;20486;-57
2022/05/25 02:13:12;;;;;;;1.50;1.40;;;15.40;99.90;;;;;;5114404;28;20543;-57
2022/05/25 02:15:49;;;;;;;4.80;1.30;;;15.40;99.90;;;;;;5114509;28;20424;-57
2022/05/25 02:18:27;;;;;;;1.67;1.57;;;15.30;99.90;;;;;;5113960;28;20476;-57
2022/05/25 02:21:00;;;;;;;1.60;1.50;;;15.30;99.90;;;;;;5114297;28;20419;-57
2022/05/25 02:23:36;;;;;;;1.83;1.47;;;15.30;99.90;;;;;;5114448;28;20518;-57
2022/05/25 02:26:09;;;;;;;1.57;1.43;;;15.20;99.90;;;;;;5104266;28;20941;-57
2022/05/25 02:28:41;;;;;;;1.53;1.43;;;15.20;99.90;;;;;;5093910;28;20915;-57
2022/05/25 02:31:13;;;;;;;1.67;1.57;;;15.20;99.90;;;;;;5093791;28;20455;-57
2022/05/25 02:33:46;;;;;;;7.10;1.53;;;15.10;99.90;;;;;;5093681;28;20522;-57
2022/05/25 02:36:14;;;;;;;2.10;1.60;;;15.10;99.90;;;;;;5093608;28;20428;-57
2022/05/25 02:38:44;;;;;;;1.40;1.30;;;15.00;99.90;;;;;;5093349;28;20551;-57
2022/05/25 02:41:13;;;;;;;1.50;1.40;;;14.90;99.90;;;;;;5093433;28;20933;-57
2022/05/25 02:43:41;;;;;;;1.67;1.57;;;15.00;99.90;;;;;;5092579;28;20479;-57
2022/05/25 02:46:09;;;;;;;4.03;1.60;;;15.00;99.90;;;;;;5093456;28;20963;-57
2022/05/25 02:48:37;;;;;;;3.23;1.63;;;15.00;99.90;;;;;;5093572;28;20814;-57
2022/05/25 02:51:07;;;;;;;2.20;1.40;;;15.10;99.90;;;;;;5093327;28;21031;-57
2022/05/25 02:53:34;;;;;;;1.60;1.47;;;15.10;99.90;;;;;;5093745;28;20440;-57
2022/05/25 02:56:02;;;;;;;1.50;1.40;;;15.10;99.90;;;;;;5102570;28;20541;-57
2022/05/25 02:58:29;;;;;;;1.60;1.30;;;15.10;99.90;;;;;;5113942;28;20471;-57
2022/05/25 03:00:57;;;;;;;2.03;1.93;;;15.00;99.90;;;;;;5116515;28;20796;-57
2022/05/25 03:03:25;;;;;;;1.83;1.60;;;15.00;99.90;;;;;;5118049;28;20478;-57
2022/05/25 03:05:52;;;;;;;2.20;1.80;;;15.00;99.90;;;;;;5118086;28;20442;-57
2022/05/25 03:08:22;;;;;;;1.50;1.40;;;15.00;99.90;;;;;;5118024;28;20466;-57
2022/05/25 03:10:49;;;;;;;2.07;1.50;;;15.00;99.90;;;;;;5117613;28;20986;-57
2022/05/25 03:13:16;;;;;;;1.50;1.40;;;15.00;99.90;;;;;;5117443;28;20526;-58
2022/05/25 03:15:44;;;;;;;3.00;1.50;;;15.10;99.90;;;;;;5117699;28;20411;-57
2022/05/25 03:18:11;;;;;;;1.93;1.40;;;15.00;99.90;;;;;;5117835;28;20499;-57
2022/05/25 03:20:38;;;;;;;1.50;1.40;;;15.00;99.90;;;;;;5117469;28;20928;-58
2022/05/25 03:23:05;;;;;;;1.50;1.40;;;14.90;99.90;;;;;;5117551;28;20517;-57
2022/05/25 03:25:34;;;;;;;1.70;1.60;;;14.90;99.90;;;;;;5117148;28;20442;-57
2022/05/25 03:28:03;;;;;;;1.30;1.10;;;14.90;99.90;;;;;;5117321;28;20444;-57
2022/05/25 03:30:30;;;;;;;1.83;1.40;;;14.90;99.90;;;;;;5117116;28;20515;-57
2022/05/25 03:32:57;;;;;;;1.77;1.57;;;14.90;99.90;;;;;;5117410;28;20990;-57
2022/05/25 03:35:25;;;;;;;1.60;1.50;;;14.90;99.90;;;;;;5117452;28;20446;-57
2022/05/25 03:37:52;;;;;;;1.80;1.50;;;14.90;99.90;;;;;;5117200;28;20456;-57
2022/05/25 03:40:19;;;;;;;1.50;1.20;;;14.90;99.90;;;;;;5117326;28;20470;-57
2022/05/25 03:42:48;;;;;;;2.23;1.53;;;14.80;99.90;;;;;;5117194;28;20447;-58
2022/05/25 03:45:17;;;;;;;2.70;1.33;;;14.80;99.90;;;;;;5116869;28;20478;-57
2022/05/25 03:47:44;;;;;;;1.70;1.60;;;14.90;99.90;;;;;;5116996;28;20442;-57
2022/05/25 03:50:12;;;;;;;1.40;1.30;;;14.90;99.90;;;;;;5117054;28;20482;-57
2022/05/25 03:52:39;;;;;;;1.50;1.40;;;14.90;99.90;;;;;;5117263;28;20453;-57
2022/05/25 03:55:08;;;;;;;1.53;1.30;;;14.90;99.90;;;;;;5116912;28;20478;-57
2022/05/25 03:57:35;;;;;;;2.83;1.80;;;14.90;99.90;;;;;;5117186;28;20470;-57
2022/05/25 04:00:04;;;;;;;1.50;1.30;;;14.90;99.90;;;;;;5116934;28;20520;-57
2022/05/25 04:02:31;;;;;;;1.50;1.40;;;15.00;99.90;;;;;;5116713;28;20442;-57
2022/05/25 04:05:12;;;;;;;1.90;1.40;;;14.90;99.90;;;;;;5116540;28;20565;-57
2022/05/25 04:07:41;;;;;;;1.97;1.87;;;14.90;99.90;;;;;;5116699;28;20430;-57
2022/05/25 04:10:12;;;;;;;1.70;1.60;;;14.90;99.90;;;;;;5116648;28;20479;-57
2022/05/25 04:12:40;;;;;;;2.33;1.50;;;14.90;99.90;;;;;;5116190;27;20423;-57
2022/05/25 04:15:11;;;;;;;1.90;1.67;;;14.90;99.90;;;;;;5116286;28;20446;-57
2022/05/25 04:17:38;;;;;;;1.60;1.50;;;14.90;99.90;;;;;;5116780;28;20809;-57
2022/05/25 04:20:08;;;;;;;1.77;1.33;;;14.90;99.90;;;;;;5116461;28;20459;-57
2022/05/25 04:22:36;;;;;;;2.30;1.63;;;14.90;99.90;;;;;;5116306;28;20450;-57
2022/05/25 04:25:05;;;;;;;3.77;2.07;;;15.00;99.90;;;;;;5114850;28;20442;-57
2022/05/25 04:27:32;;;;;;;2.10;1.50;;;15.00;99.90;;;;;;5095867;28;20454;-59
2022/05/25 04:29:59;;;;;;;1.73;1.40;;;14.90;99.90;;;;;;5095918;28;20491;-58
2022/05/25 04:32:28;;;;;;;1.70;1.60;;;14.90;99.90;;;;;;5096020;28;20479;-57
2022/05/25 04:34:57;;;;;;;1.90;1.70;;;14.90;99.90;;;;;;5095617;28;20988;-57
2022/05/25 04:40:10;;;;;;;3.57;1.70;;;14.90;99.90;;;;;;5095696;28;20459;-57
2022/05/25 04:42:37;;;;;;;2.20;1.60;;;14.90;99.90;;;;;;5095745;28;20995;-57
2022/05/25 04:45:05;;;;;;;1.77;1.67;;;14.90;99.90;;;;;;5095324;28;20475;-57
2022/05/25 04:47:37;;;;;;;3.27;1.73;;;14.90;99.90;;;;;;5095354;28;21009;-58
2022/05/25 04:50:07;;;;;;;1.93;1.43;;;15.00;99.90;;;;;;5095310;28;20522;-57
2022/05/25 04:52:34;;;;;;;2.00;1.80;;;15.00;99.90;;;;;;5095888;28;20448;-58
2022/05/25 04:55:01;;;;;;;2.40;2.20;;;15.00;99.90;;;;;;5095436;28;20516;-57
2022/05/25 04:57:27;;;;;;;2.40;1.47;;;15.10;99.90;;;;;;5095098;28;20938;-57
2022/05/25 04:59:58;;;;;;;1.70;1.60;;;15.10;99.90;;;;;;5095391;28;20463;-57
2022/05/25 05:02:25;;;;;;;3.00;2.13;;;15.00;99.90;;;;;;5095051;28;20515;-57
2022/05/25 05:04:54;;;;;;;2.10;1.90;;;15.00;99.90;;;;;;5095428;28;20802;-58
2022/05/25 05:07:31;;;;;;;2.73;1.77;;;15.00;99.90;;;;;;5095244;28;20448;-58
2022/05/25 05:09:59;;;;;;;2.00;1.80;;;15.00;99.90;;;;;;5095182;28;20487;-57
2022/05/25 05:12:26;;;;;;;4.70;2.20;;;14.90;99.90;;;;;;5094805;28;20455;-58
2022/05/25 05:14:53;;;;;;;1.60;1.50;;;14.90;99.90;;;;;;5095194;28;20981;-57
2022/05/25 05:17:20;;;;;;;2.30;1.80;;;15.00;99.90;;;;;;5094996;28;20450;-57
2022/05/25 05:19:47;;;;;;;2.00;1.63;;;15.00;99.90;;;;;;5094927;28;20507;-57
2022/05/25 05:22:17;;;;;;;2.00;1.80;;;15.10;99.90;;;;;;5094662;28;20438;-57
2022/05/25 05:24:44;;;;;;;2.33;1.40;;;15.00;99.90;;;;;;5093775;28;20458;-58
2022/05/25 05:27:11;;;;;;;1.63;1.53;;;15.00;99.90;;;;;;5113391;28;20529;-57
2022/05/25 05:29:38;;;;;;;2.00;1.67;;;15.10;99.90;;;;;;5115077;28;20462;-57
2022/05/25 05:32:06;;;;;;;2.60;1.77;;;15.10;99.90;;;;;;5115045;28;20879;-58
2022/05/25 05:34:33;;;;;;;5.50;2.47;;;15.20;99.90;;;;;;5115018;28;20452;-58
2022/05/25 05:37:05;;;;;;;4.47;1.80;;;15.30;99.90;;;;;;5114716;28;20486;-57
2022/05/25 05:39:38;;;;;;;1.90;1.60;;;15.40;99.90;;;;;;5114713;28;20500;-58
2022/05/25 05:42:09;;;;;;;1.70;1.60;;;15.30;99.90;;;;;;5114896;28;20434;-57
2022/05/25 05:44:41;;;;;;;3.70;1.60;;;15.20;99.90;;;;;;5114249;28;20524;-57
2022/05/25 05:47:13;;;;;;;1.67;1.30;;;15.20;99.90;;;;;;5114789;28;20430;-57
2022/05/25 05:49:41;;;;;;;2.67;2.43;;;15.20;99.90;;;;;;5114747;28;20467;-58
2022/05/25 05:52:09;;;;;;;3.80;1.70;;;15.20;99.90;;;;;;5114607;28;20443;-57
2022/05/25 05:54:38;;;;;;;3.30;1.80;;;15.30;99.90;;;;;;5114129;28;20447;-58
2022/05/25 05:57:08;;;;;;;5.30;1.60;;;15.40;99.90;;;;;;5114375;28;20526;-57
2022/05/25 05:59:38;;;;;;;3.33;1.97;;;15.70;99.90;;;;;;5114319;28;20443;-58
2022/05/25 06:02:05;;;;;;;1.90;1.70;;;15.90;99.90;;;;;;5113960;28;20967;-58
2022/05/25 06:04:33;;;;;;;3.27;1.60;;;16.10;99.90;;;;;;5114091;28;20933;-58
2022/05/25 06:07:00;;;;;;;2.70;1.50;;;16.10;99.90;;;;;;5114116;28;20422;-58
2022/05/25 06:09:27;;;;;;;1.60;1.50;;;16.10;99.90;;;;;;5114219;28;20524;-58
2022/05/25 06:11:56;;;;;;;2.07;1.40;;;16.00;99.90;;;;;;5113666;28;20478;-58
2022/05/25 06:14:23;;;;;;;2.00;1.80;;;16.00;99.90;;;;;;5113779;28;20447;-58
2022/05/25 06:19:37;;;;;;;1.63;1.50;;;16.00;99.90;;;;;;5114061;28;20503;-58
2022/05/25 06:22:07;;;;;;;1.80;1.70;;;16.00;99.90;;;;;;5113684;28;20490;-57
2022/05/25 06:24:38;;;;;;;2.10;1.70;;;16.10;99.90;;;;;;5114094;28;20453;-57
2022/05/25 06:27:10;;;;;;;2.00;1.80;;;16.00;99.90;;;;;;5113680;28;20442;-57
2022/05/25 06:29:38;;;;;;;1.57;1.40;;;16.10;99.90;;;;;;5113936;28;20467;-58
2022/05/25 06:32:07;;;;;;;2.80;1.67;;;16.20;99.90;;;;;;5113418;28;20484;-57
2022/05/25 06:34:40;;;;;;;5.00;1.73;;;16.40;99.90;;;;;;5113122;28;20442;-58
2022/05/25 06:37:08;;;;;;;3.00;1.60;;;16.40;99.90;;;;;;5113664;28;20442;-57
2022/05/25 06:39:37;;;;;;;1.90;1.80;;;16.60;99.90;;;;;;5113553;28;20516;-57
2022/05/25 06:42:05;;;;;;;3.07;1.80;;;16.90;99.90;;;;;;5113653;28;20446;-58
2022/05/25 06:44:34;;;;;;;1.60;1.50;;;16.70;99.90;;;;;;5112999;28;20991;-57
2022/05/25 06:47:05;;;;;;;2.13;1.77;;;16.70;99.90;;;;;;5113502;28;20507;-57
2022/05/25 06:49:33;;;;;;;2.50;1.50;;;16.80;99.90;;;;;;5113217;28;20957;-58
2022/05/25 06:52:01;;;;;;;2.53;1.60;;;16.80;99.90;;;;;;5113225;28;20975;-57
2022/05/25 06:54:29;;;;;;;5.03;1.93;;;16.70;99.90;;;;;;5113511;28;20533;-57
2022/05/25 06:56:56;;;;;;;3.83;1.70;;;16.60;99.90;;;;;;5113240;28;20457;-57
2022/05/25 06:59:23;;;;;;;2.30;1.70;;;16.70;99.90;;;;;;5113362;28;20458;-56
2022/05/25 07:01:51;;;;;;;1.70;1.60;;;16.90;99.90;;;;;;5113096;28;20439;-57
2022/05/25 07:04:19;;;;;;;1.70;1.60;;;16.80;99.90;;;;;;5113195;28;20541;-57
2022/05/25 07:06:46;;;;;;;2.83;1.87;;;16.60;99.90;;;;;;5113389;28;20450;-57
2022/05/25 07:09:13;;;;;;;3.60;1.90;;;16.70;99.90;;;;;;5113006;28;20494;-58
2022/05/25 07:11:42;;;;;;;3.17;1.60;;;16.90;99.90;;;;;;5113335;28;20477;-57
2022/05/25 07:14:09;;;;;;;2.23;1.80;;;17.20;99.90;;;;;;5112851;28;20459;-57
2022/05/25 07:16:37;;;;;;;3.83;1.87;;;17.80;99.90;;;;;;5113156;28;20485;-57
2022/05/25 07:19:06;;;;;;;4.23;1.90;;;18.50;99.90;;;;;;5113123;28;20671;-57
2022/05/25 07:21:34;;;;;;;3.30;1.83;;;19.10;99.90;;;;;;5113227;28;20438;-57
2022/05/25 07:24:02;;;;;;;2.07;1.87;;;19.80;99.70;;;;;;5112998;28;20446;-57
2022/05/25 07:26:32;;;;;;;2.03;1.50;;;20.20;98.40;;;;;;5113249;28;20442;-57
2022/05/25 07:29:00;;;;;;;3.23;1.70;;;20.70;97.40;;;;;;5112890;28;20466;-58
2022/05/25 07:31:32;;;;;;;2.00;1.63;;;20.50;96.90;;;;;;5112864;28;20474;-57
2022/05/25 07:34:04;;;;;;;3.57;1.90;;;20.80;96.40;;;;;;5112754;28;20427;-58
2022/05/25 07:36:34;;;;;;;1.73;1.50;;;21.30;95.90;;;;;;5113171;28;20431;-57
2022/05/25 07:39:07;;;;;;;4.77;1.97;;;21.00;96.50;;;;;;5112963;28;20496;-58
2022/05/25 07:41:39;;;;;;;3.00;1.67;;;21.90;95.70;;;;;;5112846;28;20518;-58
2022/05/25 07:44:08;;;;;;;1.57;1.47;;;23.00;93.60;;;;;;5112448;28;20527;-57
2022/05/25 07:46:36;;;;;;;5.83;1.67;;;23.00;93.40;;;;;;5113071;28;20458;-58
2022/05/25 07:49:03;;;;;;;2.43;1.30;;;22.70;92.60;;;;;;5116823;28;20474;-58
2022/05/25 07:51:32;;;;;;;4.30;1.47;;;23.10;91.90;;;;;;5116641;28;20568;-57
2022/05/25 07:54:02;;;;;;;2.07;1.80;;;22.50;90.80;;;;;;5116599;28;20489;-58
2022/05/25 07:56:32;;;;;;;2.43;1.40;;;22.90;90.00;;;;;;5116752;28;20453;-57
2022/05/25 07:59:00;;;;;;;1.83;1.60;;;22.20;90.60;;;;;;5116387;28;20453;-57
2022/05/25 08:07:05;;;;;;;1.90;1.57;;;22.30;90.30;;;;;;5116456;28;20524;-57
2022/05/25 08:09:33;;;;;;;1.47;1.37;;;21.90;90.20;;;;;;5116324;28;20468;-57
2022/05/25 08:12:01;;;;;;;2.17;1.30;;;21.60;89.20;;;;;;5116494;28;20506;-57
2022/05/25 08:14:30;;;;;;;1.60;1.30;;;20.90;89.10;;;;;;5116003;27;20448;-57
2022/05/25 08:16:58;;;;;;;1.63;1.23;;;20.30;89.20;;;;;;5116133;28;20446;-57
2022/05/25 08:19:25;;;;;;;3.27;1.93;;;19.90;89.20;;;;;;5116196;28;20466;-57
2022/05/25 08:21:53;;;;;;;1.80;1.67;;;19.80;90.40;;;;;;5115964;28;20981;-57
2022/05/25 08:24:21;;;;;;;4.03;1.60;;;20.30;91.70;;;;;;5116420;28;20446;-57
2022/05/25 08:26:48;;;;;;;1.93;1.67;;;21.50;92.10;;;;;;5116055;28;20447;-57
2022/05/25 08:29:16;;;;;;;4.43;1.83;;;22.20;89.00;;;;;;5116384;28;20458;-57
2022/05/25 08:31:43;;;;;;;3.67;1.80;;;22.70;86.00;;;;;;5115711;28;20832;-58
2022/05/25 08:34:10;;;;;;;2.10;1.60;;;22.40;89.00;;;;;;5116094;28;20443;-58
2022/05/25 08:36:38;;;;;;;2.00;1.80;;;22.40;87.40;;;;;;5115772;28;20442;-58
2022/05/25 08:39:05;;;;;;;1.53;1.43;;;23.40;89.20;;;;;;5115648;28;20463;-58
2022/05/25 08:41:36;;;;;;;4.63;1.40;;;23.70;85.10;;;;;;5116024;28;20488;-58
2022/05/25 08:44:07;;;;;;;2.10;1.80;;;22.70;85.20;;;;;;5115453;28;20478;-58
2022/05/25 08:46:35;;;;;;;3.53;1.40;;;22.40;86.90;;;;;;5115635;28;20810;-58
2022/05/25 08:49:03;;;;;;;4.97;1.80;;;21.60;86.80;;;;;;5115870;28;20466;-57
2022/05/25 08:51:32;;;;;;;1.70;1.50;;;21.90;86.90;;;;;;5115780;28;20486;-57
2022/05/25 08:54:01;;;;;;;5.30;1.97;;;21.50;87.70;;;;;;5115608;28;20449;-57
2022/05/25 08:56:31;;;;;;;5.33;1.63;;;;;;;;;;5102206;28;20816;-58
2022/05/25 08:59:05;;;;;;;2.10;1.30;;;21.10;88.90;;;;;;5095129;28;20459;-57
2022/05/25 09:01:38;;;;;;;1.53;1.43;;;20.80;90.80;;;;;;5094928;28;20431;-58
2022/05/25 09:04:18;;;;;;;2.47;1.67;;;20.40;90.10;;;;;;5094945;28;20523;-58
2022/05/25 09:06:50;;;;;;;3.53;1.40;;;;;;;;;;5095143;28;20430;-57
2022/05/25 09:09:25;;;;;;;3.67;3.30;;;20.80;88.60;;;;;;5094908;28;20500;-58
2022/05/25 09:11:58;;;;;;;1.47;1.37;;;21.70;91.20;;;;;;5094963;28;20473;-58
2022/05/25 09:14:31;;;;;;;2.20;2.00;;;22.50;86.40;;;;;;5094410;28;20849;-58
2022/05/25 09:17:01;;;;;;;2.20;1.67;;;23.50;89.60;;;;;;5094749;28;20450;-58
2022/05/25 09:19:32;;;;;;;3.73;1.80;;;24.80;83.10;;;;;;5094727;28;20471;-58
2022/05/25 09:22:03;;;;;;;10.67;8.47;;;24.80;79.10;;;;;;5094461;28;20443;-58
2022/05/25 09:24:30;;;;;;;1.43;1.10;;;24.70;76.10;;;;;;5094773;28;20428;-58
2022/05/25 09:26:59;;;;;;;2.97;1.37;;;23.50;75.10;;;;;;5111340;28;20461;-57
2022/05/25 09:29:28;;;;;;;2.23;1.77;;;23.20;77.80;;;;;;5115017;28;20470;-58
2022/05/25 09:31:59;;;;;;;3.33;1.60;;;22.70;76.10;;;;;;5114544;28;20484;-58
2022/05/25 09:34:36;;;;;;;1.50;1.40;;;22.10;77.60;;;;;;5115019;28;20427;-57
2022/05/25 09:37:09;;;;;;;1.63;1.37;;;21.90;79.20;;;;;;5114599;28;20427;-57
2022/05/25 09:39:42;;;;;;;1.87;1.43;;;21.80;79.60;;;;;;5114485;28;20506;-57
2022/05/25 09:42:20;;;;;;;2.90;1.60;;;21.60;79.40;;;;;;5114820;28;20825;-57
2022/05/25 09:44:53;;;;;;;2.40;1.83;;;21.00;80.70;;;;;;5114192;28;20533;-58
2022/05/25 09:47:25;;;;;;;3.00;1.77;;;21.40;81.20;;;;;;5114326;28;20427;-57
2022/05/25 09:49:55;;;;;;;3.93;1.47;;;21.30;79.30;;;;;;5114541;28;20462;-57
2022/05/25 09:52:28;;;;;;;1.50;1.40;;;21.20;80.30;;;;;;5114150;28;20474;-58
2022/05/25 09:55:00;;;;;;;2.37;1.67;;;21.70;83.10;;;;;;5114493;28;20423;-58
2022/05/25 09:57:31;;;;;;;6.10;1.67;;;22.00;77.90;;;;;;5114567;28;20518;-58
2022/05/25 10:00:03;;;;;;;1.67;1.53;;;23.00;79.90;;;;;;5114408;28;20816;-58
2022/05/25 10:02:35;;;;;;;1.43;1.33;;;23.80;77.20;;;;;;5114159;28;20430;-58
2022/05/25 10:05:16;;;;;;;1.37;1.27;;;25.20;79.10;;;;;;5114261;28;20423;-58
2022/05/25 10:07:52;;;;;;;2.23;1.50;;;25.30;74.20;;;;;;5114006;28;20513;-58
2022/05/25 10:10:27;;;;;;;2.03;1.40;;;26.00;74.50;;;;;;5113399;28;20465;-58
2022/05/25 10:13:02;;;;;;;8.00;1.53;;;26.60;70.30;;;;;;5113650;28;20553;-57
2022/05/25 10:15:34;;;;;;;4.60;1.80;;;26.20;66.40;;;;;;5113911;28;20900;-58
2022/05/25 10:18:02;;;;;;;2.07;1.30;;;26.50;66.50;;;;;;5113889;28;20446;-58
2022/05/25 10:20:32;;;;;;;1.67;1.30;;;25.60;65.80;;;;;;5113912;28;20446;-58
2022/05/25 10:23:07;;;;;;;6.63;1.17;;;26.30;69.80;;;;;;5114357;28;20438;-57
2022/05/25 10:25:40;;;;;;;1.50;1.10;;;27.50;63.70;;;;;;5113724;28;20536;-58
2022/05/25 10:28:20;;;;;;;4.80;1.77;;;26.40;62.90;;;;;;5113804;28;20433;-58
2022/05/25 10:36:49;;;;;;;4.10;1.30;;;24.10;65.30;;;;;;5113510;28;20446;-58
2022/05/25 10:39:24;;;;;;;2.03;1.40;;;23.10;66.20;;;;;;5113555;28;20826;-58
2022/05/25 10:42:06;;;;;;;1.93;1.20;;;22.70;66.90;;;;;;5113880;28;20525;-57
2022/05/25 10:44:42;;;;;;;1.57;1.47;;;22.60;70.30;;;;;;5113322;28;20479;-57
2022/05/25 10:47:22;;;;;;;1.70;1.53;;;22.40;66.60;;;;;;5113916;28;20422;-58
2022/05/25 10:49:49;;;;;;;1.70;1.60;;;21.80;70.20;;;;;;5113533;28;20961;-57
2022/05/25 10:52:25;;;;;;;1.60;1.50;;;21.60;69.70;;;;;;5113489;28;20510;-57
2022/05/25 10:54:53;;;;;;;2.80;1.80;;;21.50;70.90;;;;;;5113803;28;20426;-57
2022/05/25 10:57:44;;;;;;;3.20;1.50;;;22.60;73.80;;;;;;5113420;28;20447;-57
2022/05/25 11:00:17;;;;;;;6.10;1.50;;;23.60;70.80;;;;;;5113462;28;20463;-58
2022/05/25 11:03:20;;;;;;;2.43;1.63;;;25.00;68.50;;;;;;5113857;28;20775;-58
2022/05/25 11:05:55;;;;;;;2.03;1.27;;;26.10;66.30;;;;;;5113704;28;20491;-58
2022/05/25 11:08:36;;;;;;;2.03;1.20;;;25.80;62.40;;;;;;5113557;28;20461;-58
2022/05/25 11:11:10;;;;;;;1.60;1.30;;;24.60;61.00;;;;;;5113669;28;20801;-58
2022/05/25 11:13:54;;;;;;;1.93;1.40;;;23.40;66.40;;;;;;5113478;28;20489;-59
2022/05/25 11:16:34;;;;;;;4.43;1.50;;;22.80;66.60;;;;;;5113433;28;20452;-58
2022/05/25 11:19:36;;;;;;;3.47;1.30;;;22.50;66.20;;;;;;5113352;28;20519;-58
2022/05/25 11:22:17;;;;;;;1.90;1.37;;;22.50;69.80;;;;;;5115731;28;20422;-58
2022/05/25 11:25:01;;;;;;;1.43;1.20;;;22.30;67.60;;;;;;5117670;28;20419;-58
2022/05/25 11:27:51;;;;;;;3.40;1.70;;;21.80;68.70;;;;;;5117244;28;20430;-58
2022/05/25 11:30:24;;;;;;;3.70;1.80;;;21.50;71.00;;;;;;5117189;28;20462;-59
2022/05/25 11:33:06;;;;;;;1.50;1.20;;;21.50;70.20;;;;;;5117307;28;20505;-59
2022/05/25 11:35:49;;;;;;;1.73;1.20;;;21.70;72.00;;;;;;5117053;27;20476;-57
2022/05/25 11:38:33;;;;;;;1.60;1.50;;;22.00;69.80;;;;;;5117074;28;20466;-57
2022/05/25 11:41:17;;;;;;;2.00;1.40;;;22.00;71.70;;;;;;5116798;28;20502;-58
2022/05/25 11:44:00;;;;;;;2.73;1.60;;;22.60;73.30;;;;;;5116599;28;20990;-58
2022/05/25 11:46:40;;;;;;;1.70;1.50;;;24.30;74.20;;;;;;5116835;28;20787;-57
2022/05/25 11:49:41;;;;;;;1.67;1.37;;;25.40;66.70;;;;;;5116454;27;20489;-58
2022/05/25 11:52:31;;;;;;;1.57;1.40;;;25.60;63.10;;;;;;5116687;28;20467;-57
2022/05/25 11:55:08;;;;;;;2.43;1.77;;;25.50;62.00;;;;;;5115998;28;20860;-57
2022/05/25 11:57:40;;;;;;;5.03;1.40;;;25.70;64.30;;;;;;5116857;28;20418;-59
2022/05/25 12:00:21;;;;;;;1.60;1.27;;;25.80;62.20;;;;;;5116780;28;20462;-59
2022/05/25 12:03:24;;;;;;;3.20;1.60;;;24.90;65.80;;;;;;5116753;28;20426;-58
2022/05/25 12:06:04;;;;;;;2.27;1.83;;;23.80;62.80;;;;;;5116019;28;20442;-58
2022/05/25 12:08:54;;;;;;;2.40;1.50;;;23.70;66.10;;;;;;5116556;28;20507;-58
2022/05/25 12:11:31;;;;;;;1.80;1.50;;;24.60;64.10;;;;;;5116736;28;20445;-58
2022/05/25 12:14:07;;;;;;;1.50;1.40;;;24.80;64.00;;;;;;5116421;28;20492;-58
2022/05/25 12:16:39;;;;;;;1.50;1.20;;;25.40;62.10;;;;;;5115870;28;20441;-58
2022/05/25 12:19:11;;;;;;;1.97;1.30;;;25.40;62.30;;;;;;5116489;28;20549;-57
2022/05/25 12:21:42;;;;;;;7.13;1.83;;;25.00;60.40;;;;;;5116199;27;20443;-58
2022/05/25 12:24:16;;;;;;;3.23;1.30;;;25.10;59.60;;;;;;5116258;28;20422;-58
2022/05/25 12:26:44;;;;;;;1.50;1.30;;;24.70;59.80;;;;;;5115734;28;20883;-58
2022/05/25 12:29:20;;;;;;;4.17;1.40;;;25.30;62.50;;;;;;5115954;28;20471;-58
2022/05/25 12:31:50;;;;;;;3.47;1.60;;;26.10;59.40;;;;;;5115941;28;20892;-58
2022/05/25 12:34:23;;;;;;;2.13;1.53;;;26.10;58.90;;;;;;5115268;28;20434;-59
2022/05/25 12:36:51;;;;;;;2.70;1.70;;;26.70;59.20;;;;;;5116063;28;20427;-58
2022/05/25 12:39:51;;;;;;;6.07;1.43;;;26.60;59.50;;;;;;5115728;28;20981;-58
2022/05/25 12:42:45;;;;;;;1.63;1.10;;;26.10;58.60;;;;;;5115767;28;20441;-58
2022/05/25 12:48:47;;;;;;;2.83;1.40;;;26.00;59.10;;;;;;5115682;28;20406;-58
2022/05/25 12:51:38;;;;;;;2.50;1.30;;;25.30;61.50;;;;;;5115867;28;20484;-57
2022/05/25 12:54:18;;;;;;;2.60;1.60;;;24.40;60.10;;;;;;5115684;28;20513;-63
2022/05/25 12:56:46;;;;;;;2.37;1.70;;;23.70;59.60;;;;;;5115390;28;20909;-58
2022/05/25 12:59:27;;;;;;;4.63;1.50;;;23.30;61.90;;;;;;5115268;28;20462;-58
2022/05/25 13:02:13;;;;;;;1.93;1.40;;;23.10;60.70;;;;;;5115771;28;20462;-58
2022/05/25 13:04:48;;;;;;;6.20;4.10;;;23.40;61.20;;;;;;5115633;28;20408;-58
2022/05/25 13:07:46;;;;;;;5.37;1.67;;;23.50;59.70;;;;;;5115486;28;20488;-58
2022/05/25 13:10:21;;;;;;;1.93;1.30;;;24.00;59.70;;;;;;5115660;28;20521;-58
2022/05/25 13:12:54;;;;;;;1.50;1.30;;;24.50;60.10;;;;;;5115084;28;20462;-59
2022/05/25 13:15:42;;;;;;;2.33;1.60;;;24.80;60.20;;;;;;5115322;28;20491;-58
2022/05/25 13:18:49;;;;;;;1.90;1.60;;;25.50;58.50;;;;;;5115228;28;20458;-59
2022/05/25 13:21:40;;;;;;;2.57;1.63;;;25.60;59.10;;;;;;5115458;28;20518;-58
2022/05/25 13:24:42;;;;;;;6.00;1.50;;;25.70;59.50;;;;;;5114923;28;20929;-58
2022/05/25 13:28:02;;;;;;;4.63;1.83;;;25.60;58.00;;;;;;5114784;28;20799;-58
2022/05/25 13:30:36;;;;;;;3.00;1.47;;;25.50;58.00;;;;;;5115256;28;20431;-59
2022/05/25 13:33:14;;;;;;;1.43;1.33;;;26.10;58.20;;;;;;5114835;28;20465;-58
2022/05/25 13:35:45;;;;;;;2.57;1.70;;;26.20;57.30;;;;;;5114750;28;20463;-59
2022/05/25 13:38:30;;;;;;;3.00;1.70;;;26.40;57.30;;;;;;5115008;28;20446;-58
2022/05/25 13:41:04;;;;;;;1.60;1.40;;;26.30;56.80;;;;;;5113599;27;20478;-59
2022/05/25 13:43:57;;;;;;;2.40;1.47;;;25.90;55.70;;;;;;5114593;28;20480;-59